Time;durP1;ratioP1;P1;durP2;ratioP2;P2;SDS_P1;SDS_P2;PMS_P1;PMS_P2;Temp;Humidity;BMP_temperature;BMP_pressure;BME280_temperature;BME280_humidity;BME280_pressure;Samples;Min_cycle;Max_cycle;Signal;HPM_P1;HPM_P2
2022/10/13 00:00:45;;;;;;;26.23;16.48;;;;;;;10.05;70.90;100151.61;1741074;81;20955;-74
2022/10/13 00:03:12;;;;;;;22.65;16.75;;;;;;;10.10;70.83;100154.65;1747842;81;20907;-75
2022/10/13 00:05:46;;;;;;;26.93;18.25;;;;;;;10.09;70.74;100152.48;1733659;82;21485;-75
2022/10/13 00:08:17;;;;;;;22.27;17.75;;;;;;;10.12;70.63;100153.55;1727154;81;21017;-75
2022/10/13 00:10:48;;;;;;;26.45;17.25;;;;;;;10.15;70.48;100156.39;1739150;81;20962;-75
2022/10/13 00:13:17;;;;;;;25.52;16.62;;;;;;;10.17;70.44;100157.91;1718902;82;20982;-75
2022/10/13 00:15:45;;;;;;;20.77;15.58;;;;;;;10.17;70.34;100155.25;1744550;81;20883;-75
2022/10/13 00:18:13;;;;;;;24.15;16.80;;;;;;;10.18;70.27;100156.09;1735383;81;21517;-75
2022/10/13 00:20:45;;;;;;;22.85;15.32;;;;;;;10.18;70.26;100153.44;1731011;81;20929;-75
2022/10/13 00:23:17;;;;;;;20.10;15.60;;;;;;;10.19;70.31;100149.80;1737612;82;21000;-75
2022/10/13 00:25:44;;;;;;;22.95;15.58;;;;;;;10.21;70.23;100150.48;1740953;81;21491;-74
2022/10/13 00:28:10;;;;;;;20.20;14.20;;;;;;;10.21;70.12;100147.33;1743178;81;20950;-75
2022/10/13 00:30:38;;;;;;;21.05;15.08;;;;;;;10.23;70.05;100153.81;1746482;81;21194;-75
2022/10/13 00:33:05;;;;;;;19.65;13.85;;;;;;;10.22;70.01;100148.17;1752858;81;20986;-74
2022/10/13 00:35:32;;;;;;;20.32;14.00;;;;;;;10.21;70.06;100151.81;1752313;81;21419;-74
2022/10/13 00:37:59;;;;;;;18.35;13.72;;;;;;;10.21;70.10;100149.99;1738379;81;20922;-74
2022/10/13 00:40:27;;;;;;;18.20;13.38;;;;;;;10.23;70.02;100149.34;1740362;81;21496;-75
2022/10/13 00:42:55;;;;;;;20.02;12.60;;;;;;;10.26;69.90;100142.88;1739208;81;21147;-76
2022/10/13 00:45:28;;;;;;;20.30;13.68;;;;;;;10.27;69.82;100144.56;1738498;81;21002;-75
2022/10/13 00:47:57;;;;;;;17.62;13.03;;;;;;;10.28;69.76;100147.55;1722545;81;20926;-74
2022/10/13 00:50:31;;;;;;;20.90;14.35;;;;;;;10.28;69.75;100144.89;1778269;80;21428;-75
2022/10/13 00:52:57;;;;;;;16.17;12.35;;;;;;;10.27;69.77;100148.03;1747874;80;20938;-75
2022/10/13 00:55:30;;;;;;;23.73;15.00;;;;;;;10.26;69.88;100144.21;1764359;80;21018;-76
2022/10/13 00:57:59;;;;;;;25.55;14.45;;;;;;;10.26;70.00;100149.53;1768610;80;21562;-74
2022/10/13 01:00:28;;;;;;;23.47;14.35;;;;;;;10.24;70.04;100147.52;1761053;80;20947;-75
2022/10/13 01:02:56;;;;;;;15.68;12.47;;;;;;;10.21;70.12;100147.33;1776079;80;20930;-75
2022/10/13 01:05:22;;;;;;;17.73;12.28;;;;;;;10.22;70.10;100140.20;1764091;80;20882;-75
2022/10/13 01:07:50;;;;;;;17.77;12.25;;;;;;;10.21;70.11;100146.48;1765015;81;22148;-75
2022/10/13 01:10:25;;;;;;;18.82;11.75;;;;;;;10.22;70.12;100142.86;1760934;81;20898;-75
2022/10/13 01:12:57;;;;;;;16.57;11.22;;;;;;;10.24;70.16;100144.86;1774828;80;20977;-74
2022/10/13 01:15:44;;;;;;;18.05;10.53;;;;;;;10.26;70.21;100140.22;1763640;80;20903;-75
2022/10/13 01:18:31;;;;;;;14.93;11.08;;;;;;;10.27;70.19;100137.91;1758831;81;21519;-75
2022/10/13 01:21:17;;;;;;;16.55;11.70;;;;;;;10.29;70.12;100142.09;1762140;81;21503;-75
2022/10/13 01:24:08;;;;;;;15.15;11.38;;;;;;;10.29;70.15;100137.27;1762772;80;20918;-75
2022/10/13 01:27:05;;;;;;;14.50;11.18;;;;;;;10.29;70.25;100138.59;1764516;80;21511;-75
2022/10/13 01:30:00;;;;;;;16.77;10.50;;;;;;;10.30;70.24;100141.58;1767411;78;21487;-75
2022/10/13 01:32:49;;;;;;;15.85;11.90;;;;;;;10.30;70.24;100134.44;1770391;80;20954;-74
2022/10/13 01:35:36;;;;;;;17.07;13.03;;;;;;;10.29;70.44;100142.09;1779613;80;21157;-74
2022/10/13 01:38:25;;;;;;;22.93;14.95;;;;;;;10.26;70.65;100138.89;1754292;80;21350;-75
2022/10/13 01:41:15;;;;;;;20.15;14.23;;;;;;;10.22;70.78;100144.19;1754942;80;20897;-74
2022/10/13 01:43:58;;;;;;;15.85;13.30;;;;;;;10.18;70.90;100133.50;1717801;80;20973;-74
2022/10/13 01:46:28;;;;;;;17.52;12.43;;;;;;;10.19;70.89;100135.17;1775355;80;20875;-74
2022/10/13 01:48:57;;;;;;;19.67;14.23;;;;;;;10.22;70.84;100138.35;1788306;78;21102;-75
2022/10/13 01:51:24;;;;;;;24.18;16.05;;;;;;;10.22;70.90;100141.53;1783777;79;20879;-75
2022/10/13 01:53:52;;;;;;;22.48;15.83;;;;;;;10.21;70.88;100134.52;1780539;79;21468;-75
2022/10/13 01:56:19;;;;;;;18.77;14.07;;;;;;;10.21;70.86;100129.20;1780219;80;20970;-74
2022/10/13 01:58:48;;;;;;;19.12;13.20;;;;;;;10.19;70.91;100132.03;1775444;80;20998;-75
2022/10/13 02:02:04;;;;;;;20.52;15.58;;;;;;;10.19;70.86;100130.70;1786370;80;21885;-75
2022/10/13 02:04:57;;;;;;;23.62;15.00;;;;;;;10.19;70.83;100135.17;1761458;80;20907;-74
2022/10/13 02:07:41;;;;;;;18.82;14.00;;;;;;;10.12;70.92;100134.06;1777241;80;21093;-74
2022/10/13 02:10:29;;;;;;;17.00;12.93;;;;;;;10.07;71.03;100127.03;1777528;80;20973;-74
2022/10/13 02:13:03;;;;;;;15.35;12.53;;;;;;;10.02;71.11;100126.17;1742207;81;21495;-74
2022/10/13 02:15:40;;;;;;;16.77;13.20;;;;;;;10.01;71.28;100123.67;1761043;80;27591;-74
2022/10/13 02:18:12;;;;;;;16.45;13.18;;;;;;;10.02;71.28;100126.17;1764197;80;20910;-74
2022/10/13 02:20:40;;;;;;;19.73;12.47;;;;;;;10.04;71.35;100126.84;1758796;81;20970;-74
2022/10/13 02:23:11;;;;;;;16.50;12.75;;;;;;;10.04;71.46;100128.17;1758727;81;20985;-74
2022/10/13 02:25:37;;;;;;;15.32;11.78;;;;;;;10.04;71.67;100124.70;1725688;80;20942;-74
2022/10/13 02:28:05;;;;;;;18.70;12.05;;;;;;;10.03;71.89;100127.01;1767307;80;22184;-74
2022/10/13 02:30:33;;;;;;;16.60;12.93;;;;;;;10.02;72.21;100124.84;1723349;81;20922;-74
2022/10/13 02:33:00;;;;;;;18.15;13.15;;;;;;;10.03;72.33;100126.52;1768791;80;21480;-74
2022/10/13 02:35:29;;;;;;;21.20;12.03;;;;;;;10.05;72.38;100130.34;1779408;80;20973;-75
2022/10/13 02:38:00;;;;;;;20.40;13.03;;;;;;;10.07;72.30;100129.20;1769829;80;20970;-75
2022/10/13 02:40:26;;;;;;;17.90;13.28;;;;;;;10.08;72.33;100130.05;1758651;80;21281;-75
2022/10/13 02:42:54;;;;;;;17.77;12.50;;;;;;;10.06;72.41;100131.54;1770200;80;21492;-75
2022/10/13 02:45:21;;;;;;;15.72;12.65;;;;;;;10.05;72.57;100129.02;1763978;80;20931;-75
2022/10/13 02:47:47;;;;;;;21.25;14.58;;;;;;;10.04;72.69;100124.19;1765723;80;20976;-74
2022/10/13 02:50:14;;;;;;;19.35;13.28;;;;;;;10.07;72.71;100122.56;1762065;80;20982;-74
2022/10/13 02:52:41;;;;;;;20.45;14.05;;;;;;;10.12;72.61;100126.08;1762768;80;21156;-75
2022/10/13 02:55:08;;;;;;;23.55;13.40;;;;;;;10.10;72.54;100124.08;1768371;80;20926;-75
2022/10/13 02:57:36;;;;;;;17.98;12.70;;;;;;;10.08;72.57;100126.06;1773419;80;20906;-75
2022/10/13 03:00:06;;;;;;;16.27;11.90;;;;;;;10.07;72.62;100130.53;1741530;81;20884;-75
2022/10/13 03:02:32;;;;;;;15.90;12.33;;;;;;;10.10;72.54;100125.41;1811971;79;20859;-75
2022/10/13 03:04:59;;;;;;;18.02;13.35;;;;;;;10.10;72.59;100130.23;1811850;79;21234;-75
2022/10/13 03:07:25;;;;;;;14.30;12.53;;;;;;;10.07;72.76;100121.72;1787676;79;20906;-75
2022/10/13 03:09:53;;;;;;;17.50;12.75;;;;;;;10.08;72.90;100132.70;1760410;80;20899;-74
2022/10/13 03:12:20;;;;;;;16.27;12.82;;;;;;;10.05;73.08;100131.67;1761776;81;21036;-75
2022/10/13 03:14:46;;;;;;;13.50;11.70;;;;;;;10.04;73.17;100135.34;1764454;81;21013;-74
2022/10/13 03:17:14;;;;;;;15.98;11.68;;;;;;;10.01;73.34;100131.64;1760990;80;20934;-75
2022/10/13 03:19:41;;;;;;;14.23;11.12;;;;;;;9.97;73.48;100131.10;1764014;81;20994;-74
2022/10/13 03:22:13;;;;;;;18.45;11.70;;;;;;;9.96;73.63;100132.59;1764400;81;20927;-74
2022/10/13 03:24:37;;;;;;;20.43;13.13;;;;;;;9.97;73.61;100130.26;1755971;81;20958;-75
2022/10/13 03:27:04;;;;;;;15.23;11.30;;;;;;;9.97;73.62;100132.91;1789163;79;20899;-75
2022/10/13 03:29:31;;;;;;;14.65;11.40;;;;;;;9.99;73.61;100130.94;1810334;79;21185;-75
2022/10/13 03:31:57;;;;;;;15.83;11.88;;;;;;;9.98;73.65;100130.61;1811784;79;20910;-74
2022/10/13 03:34:24;;;;;;;19.25;13.03;;;;;;;10.00;73.72;100131.29;1809157;79;20923;-74
2022/10/13 03:36:52;;;;;;;14.53;12.55;;;;;;;10.02;73.68;100126.17;1765531;80;20899;-75
2022/10/13 03:39:19;;;;;;;17.25;13.38;;;;;;;10.07;73.65;100133.67;1732907;81;21472;-75
2022/10/13 03:41:46;;;;;;;21.05;13.28;;;;;;;10.10;73.64;100130.23;1724022;83;21140;-75
2022/10/13 03:44:12;;;;;;;18.37;12.80;;;;;;;10.13;73.67;100133.96;1811795;79;21040;-75
2022/10/13 03:46:39;;;;;;;17.70;12.37;;;;;;;10.15;73.69;100132.47;1794310;79;20926;-75
2022/10/13 03:49:05;;;;;;;16.15;11.80;;;;;;;10.16;73.75;100134.15;1810888;79;20883;-75
2022/10/13 03:51:32;;;;;;;18.27;12.28;;;;;;;10.16;73.87;100135.48;1803863;79;20868;-74
2022/10/13 03:53:59;;;;;;;19.20;12.82;;;;;;;10.16;73.94;100130.16;1770189;80;21183;-74
2022/10/13 03:56:26;;;;;;;19.10;12.90;;;;;;;10.18;73.90;100126.84;1758516;80;20879;-74
2022/10/13 03:58:54;;;;;;;16.93;12.65;;;;;;;10.17;73.89;100128.67;1765772;81;20895;-75
2022/10/13 04:01:23;;;;;;;19.10;12.50;;;;;;;10.16;73.94;100122.19;1763480;80;20895;-75
2022/10/13 04:03:51;;;;;;;19.10;12.65;;;;;;;10.17;73.94;100123.84;1751870;81;20864;-75
2022/10/13 04:06:18;;;;;;;17.45;12.40;;;;;;;10.20;73.86;100127.04;1762591;81;21884;-75
2022/10/13 04:08:46;;;;;;;15.25;12.50;;;;;;;10.22;73.78;100127.71;1769019;81;20938;-75
2022/10/13 04:11:14;;;;;;;19.75;12.75;;;;;;;10.24;73.79;100130.23;1772221;80;20962;-75
2022/10/13 04:13:42;;;;;;;20.92;15.95;;;;;;;10.25;73.72;100130.08;1766337;81;20977;-74
2022/10/13 04:16:22;;;;;;;18.52;14.75;;;;;;;10.26;73.69;100125.11;1769710;81;21042;-75
2022/10/13 04:18:55;;;;;;;16.93;13.22;;;;;;;10.29;73.63;100119.98;1770075;80;21144;-75
2022/10/13 04:21:23;;;;;;;18.92;13.83;;;;;;;10.30;73.55;100121.63;1786031;79;20882;-74
2022/10/13 04:23:50;;;;;;;25.80;13.88;;;;;;;10.28;73.64;100119.63;1772045;80;21503;-75
2022/10/13 04:26:20;;;;;;;16.27;11.75;;;;;;;10.24;73.83;100119.12;1743484;80;21009;-75
2022/10/13 04:28:49;;;;;;;21.65;14.95;;;;;;;10.25;73.98;100119.44;1766554;80;20990;-74
2022/10/13 04:31:15;;;;;;;16.93;13.38;;;;;;;10.27;73.95;100117.97;1746746;80;21296;-74
2022/10/13 04:33:44;;;;;;;17.90;12.58;;;;;;;10.30;73.84;100118.97;1778777;80;20934;-74
2022/10/13 04:36:11;;;;;;;20.25;12.98;;;;;;;10.33;73.77;100116.01;1739941;80;20902;-74
2022/10/13 04:38:38;;;;;;;18.48;12.25;;;;;;;10.36;73.73;100117.03;1749874;80;20934;-75
2022/10/13 04:41:07;;;;;;;16.85;12.60;;;;;;;10.39;73.68;100117.58;1778706;79;20994;-76
2022/10/13 04:43:33;;;;;;;19.40;11.78;;;;;;;10.41;73.66;100110.76;1747219;79;21122;-75
2022/10/13 04:46:16;;;;;;;15.98;11.63;;;;;;;10.44;73.51;100121.09;1766945;79;20915;-75
2022/10/13 04:48:43;;;;;;;22.52;12.00;;;;;;;10.45;73.49;100116.13;1735801;80;21053;-74
2022/10/13 04:51:12;;;;;;;19.50;12.85;;;;;;;10.45;73.43;100116.94;1758028;80;21037;-74
2022/10/13 04:53:39;;;;;;;16.30;12.20;;;;;;;10.41;73.56;100114.75;1759842;80;21038;-74
2022/10/13 04:56:11;;;;;;;27.65;11.43;;;;;;;10.40;73.74;100113.09;1768474;80;21240;-74
2022/10/13 04:58:38;;;;;;;24.85;14.47;;;;;;;10.39;73.88;100108.75;1754356;80;21052;-75
2022/10/13 05:01:05;;;;;;;22.00;13.58;;;;;;;10.40;73.95;100110.44;1730885;82;20879;-75
2022/10/13 05:03:33;;;;;;;24.18;14.15;;;;;;;10.42;73.87;100119.09;1749041;80;20902;-76
2022/10/13 05:06:00;;;;;;;22.07;13.48;;;;;;;10.45;73.75;100115.61;1767769;80;20973;-74
2022/10/13 05:08:26;;;;;;;23.55;12.98;;;;;;;10.50;73.65;100120.48;1756803;80;22114;-75
2022/10/13 05:11:01;;;;;;;24.35;13.20;;;;;;;10.54;73.68;100125.83;1746770;81;21567;-75
2022/10/13 05:13:30;;;;;;;22.85;14.33;;;;;;;10.55;73.74;100119.53;1769983;80;20926;-76
2022/10/13 05:16:09;;;;;;;20.50;12.40;;;;;;;10.57;73.64;100120.20;1756054;80;21002;-76
2022/10/13 05:18:36;;;;;;;17.67;11.60;;;;;;;10.58;73.74;100113.91;1730046;80;20915;-74
2022/10/13 05:21:12;;;;;;;19.65;12.25;;;;;;;10.61;73.90;100120.73;1759158;80;21359;-74
2022/10/13 05:23:39;;;;;;;21.77;12.28;;;;;;;10.64;73.87;100119.91;1761269;80;20990;-75
2022/10/13 05:26:09;;;;;;;20.55;11.70;;;;;;;10.68;73.86;100121.78;1740736;81;20938;-75
2022/10/13 05:28:36;;;;;;;21.95;11.48;;;;;;;10.68;73.83;100123.11;1749292;80;21469;-76
2022/10/13 05:31:17;;;;;;;21.17;11.55;;;;;;;10.66;74.02;100123.77;1765303;80;20930;-75
2022/10/13 05:33:44;;;;;;;25.92;12.40;;;;;;;10.66;74.13;100121.95;1737170;80;21279;-75
2022/10/13 05:36:15;;;;;;;18.42;11.75;;;;;;;10.68;74.15;100123.11;1752249;80;21077;-77
2022/10/13 05:38:41;;;;;;;19.15;11.75;;;;;;;10.72;74.02;100127.12;1742947;81;21019;-74
2022/10/13 05:41:13;;;;;;;17.77;11.35;;;;;;;10.74;73.97;100121.17;1746723;81;20962;-76
2022/10/13 05:43:40;;;;;;;17.05;11.25;;;;;;;10.79;73.86;100126.37;1746933;80;21002;-76
2022/10/13 05:46:07;;;;;;;24.65;12.55;;;;;;;10.86;73.68;100126.08;1767475;80;21543;-75
2022/10/13 05:48:36;;;;;;;29.90;12.10;;;;;;;10.89;73.65;100124.44;1749535;80;20889;-75
2022/10/13 05:51:26;;;;;;;23.00;12.37;;;;;;;10.95;73.76;100133.11;1767877;79;21483;-75
2022/10/13 05:53:58;;;;;;;26.45;12.05;;;;;;;10.99;73.74;100137.14;1779754;78;20858;-78
2022/10/13 05:56:28;;;;;;;25.95;11.95;;;;;;;11.01;73.86;100131.16;1735473;80;21009;-73
2022/10/13 05:58:59;;;;;;;22.32;11.88;;;;;;;11.03;73.97;100127.83;1763551;79;21576;-75
2022/10/13 06:01:26;;;;;;;20.40;12.07;;;;;;;11.07;73.88;100133.20;1753887;80;20946;-76
2022/10/13 06:03:54;;;;;;;27.98;12.40;;;;;;;11.09;73.91;100135.20;1806426;79;20891;-74
2022/10/13 06:06:22;;;;;;;25.97;12.28;;;;;;;11.13;73.98;100140.53;1775023;79;21475;-71
2022/10/13 06:08:50;;;;;;;28.57;12.43;;;;;;;11.18;74.07;100139.25;1779123;78;20921;-71
2022/10/13 06:11:16;;;;;;;22.67;11.60;;;;;;;11.22;74.03;100141.42;1811031;78;21188;-72
2022/10/13 06:13:43;;;;;;;28.60;11.93;;;;;;;11.27;73.97;100139.61;1812754;78;21443;-71
2022/10/13 06:16:09;;;;;;;18.23;11.28;;;;;;;11.31;74.02;100144.48;1759615;80;20905;-69
2022/10/13 06:18:37;;;;;;;22.73;13.00;;;;;;;11.36;74.04;100144.00;1805043;78;21038;-73
2022/10/13 06:21:04;;;;;;;19.48;11.45;;;;;;;11.41;73.77;100137.20;1806940;78;20914;-74
2022/10/13 06:23:31;;;;;;;25.95;11.10;;;;;;;11.49;73.42;100141.73;1742656;81;21417;-75
2022/10/13 06:25:58;;;;;;;21.65;11.20;;;;;;;11.56;73.28;100139.59;1823543;78;20953;-76
2022/10/13 06:28:26;;;;;;;20.57;11.22;;;;;;;11.62;73.25;100138.95;1810652;78;20906;-75
2022/10/13 06:30:55;;;;;;;20.55;11.50;;;;;;;11.68;73.31;100137.45;1782469;79;21405;-75
2022/10/13 06:33:23;;;;;;;16.80;11.22;;;;;;;11.71;73.24;100140.67;1788375;80;20870;-76
2022/10/13 06:35:51;;;;;;;29.92;12.53;;;;;;;11.78;73.29;100142.70;1792415;79;21494;-77
2022/10/13 06:38:18;;;;;;;17.05;11.78;;;;;;;11.81;73.40;100145.86;1772478;79;20898;-74
2022/10/13 06:40:47;;;;;;;22.75;13.05;;;;;;;11.88;73.34;100140.23;1792545;79;21475;-73
2022/10/13 06:43:14;;;;;;;21.85;13.50;;;;;;;11.94;73.14;100141.42;1760478;80;20990;-73
2022/10/13 06:45:41;;;;;;;19.25;13.93;;;;;;;12.01;72.92;100143.77;1792007;80;20958;-72
2022/10/13 06:48:07;;;;;;;21.80;13.88;;;;;;;12.07;72.73;100149.78;1798894;78;21156;-78
2022/10/13 06:50:34;;;;;;;19.12;13.48;;;;;;;12.12;72.59;100142.94;1758196;80;20942;-72
2022/10/13 06:53:00;;;;;;;21.50;12.50;;;;;;;12.21;72.13;100143.30;1732211;80;21572;-77
2022/10/13 06:55:27;;;;;;;18.50;12.33;;;;;;;12.32;71.53;100142.98;1723052;81;21021;-76
2022/10/13 06:57:53;;;;;;;13.98;11.08;;;;;;;12.42;70.89;100144.64;1723508;83;20903;-75
2022/10/13 07:00:20;;;;;;;15.72;11.50;;;;;;;12.50;70.25;100141.98;1723253;81;21816;-75
2022/10/13 07:02:51;;;;;;;19.55;11.60;;;;;;;12.60;69.66;100141.31;1728087;82;21527;-76
2022/10/13 07:05:21;;;;;;;18.30;10.58;;;;;;;12.71;68.99;100145.82;1729814;81;20980;-78
2022/10/13 07:07:55;;;;;;;21.45;11.97;;;;;;;12.82;68.42;100141.98;1723637;82;20959;-76
2022/10/13 07:10:21;;;;;;;21.37;13.08;;;;;;;12.93;68.06;100150.45;1725261;81;20850;-77
2022/10/13 07:12:48;;;;;;;22.37;13.45;;;;;;;13.06;68.05;100147.78;1723237;82;21774;-76
2022/10/13 07:15:16;;;;;;;24.80;15.32;;;;;;;13.15;68.16;100150.30;1717629;81;20993;-71
2022/10/13 07:17:43;;;;;;;24.40;15.25;;;;;;;13.28;68.32;100145.74;1751588;80;20902;-73
2022/10/13 07:20:11;;;;;;;28.95;15.13;;;;;;;13.34;68.00;100141.91;1778857;79;21413;-73
2022/10/13 07:22:38;;;;;;;27.87;15.75;;;;;;;13.43;67.89;100148.03;1737202;80;20966;-73
2022/10/13 07:25:06;;;;;;;23.57;15.65;;;;;;;13.50;67.63;100143.69;1723519;82;21326;-73
2022/10/13 07:27:32;;;;;;;27.30;15.05;;;;;;;13.56;67.41;100142.47;1723006;82;21160;-73
2022/10/13 07:29:59;;;;;;;25.15;15.32;;;;;;;13.59;67.19;100147.48;1723344;82;21030;-72
2022/10/13 07:32:25;;;;;;;31.10;15.18;;;;;;;13.65;66.90;100146.45;1723347;82;20954;-74
2022/10/13 07:34:52;;;;;;;28.02;15.32;;;;;;;13.70;66.75;100146.76;1723327;82;20938;-73
2022/10/13 07:37:19;;;;;;;29.57;16.40;;;;;;;13.79;66.74;100150.55;1723637;81;21547;-73
2022/10/13 07:39:47;;;;;;;32.33;15.30;;;;;;;13.91;66.78;100146.99;1723617;82;21520;-73
2022/10/13 07:42:14;;;;;;;30.85;16.45;;;;;;;14.02;66.68;100143.43;1723352;81;21021;-72
2022/10/13 07:44:41;;;;;;;27.62;15.25;;;;;;;14.13;66.47;100143.00;1723334;81;20919;-73
2022/10/13 07:47:08;;;;;;;36.55;15.95;;;;;;;14.27;66.17;100149.94;1723520;81;20998;-72
2022/10/13 07:49:34;;;;;;;24.35;13.83;;;;;;;14.34;65.61;100145.06;1723511;82;21333;-73
2022/10/13 07:52:03;;;;;;;30.27;14.43;;;;;;;14.43;65.32;100148.53;1754973;80;21433;-73
2022/10/13 07:54:30;;;;;;;28.73;14.50;;;;;;;14.51;65.04;100153.32;1766084;80;20890;-73
2022/10/13 07:56:56;;;;;;;24.75;14.00;;;;;;;14.61;64.43;100145.03;1774724;80;21038;-72
2022/10/13 07:59:23;;;;;;;21.93;13.72;;;;;;;14.70;63.80;100144.77;1778347;80;20989;-74
2022/10/13 08:01:50;;;;;;;28.07;12.98;;;;;;;14.78;63.09;100138.01;1778396;80;21150;-72
2022/10/13 08:04:16;;;;;;;28.92;12.33;;;;;;;14.87;62.55;100143.30;1770275;80;21059;-74
2022/10/13 08:06:43;;;;;;;21.07;11.57;;;;;;;14.96;62.08;100136.86;1772114;80;20875;-72
2022/10/13 08:09:10;;;;;;;20.70;12.37;;;;;;;15.02;61.07;100137.45;1763025;80;20994;-75
2022/10/13 08:11:37;;;;;;;17.45;10.72;;;;;;;15.06;60.60;100141.44;1765089;80;21013;-73
2022/10/13 08:14:04;;;;;;;22.85;12.50;;;;;;;15.16;60.20;100146.02;1759736;80;21962;-72
2022/10/13 08:16:31;;;;;;;21.73;12.45;;;;;;;15.26;59.85;100138.54;1777014;80;21459;-73
2022/10/13 08:18:58;;;;;;;20.90;13.40;;;;;;;15.35;59.40;100135.61;1778137;80;20942;-76
2022/10/13 08:21:26;;;;;;;25.90;12.98;;;;;;;15.42;59.00;100143.22;1776963;80;20871;-72
2022/10/13 08:24:07;;;;;;;21.87;12.43;;;;;;;15.49;58.56;100140.64;1775420;80;20930;-73
2022/10/13 08:26:34;;;;;;;19.32;11.70;;;;;;;15.57;57.82;100139.71;1766815;80;21091;-73
2022/10/13 08:29:01;;;;;;;20.23;9.85;;;;;;;15.63;57.43;100135.80;1769435;80;20970;-74
2022/10/13 08:31:28;;;;;;;13.85;7.70;;;;;;;15.73;57.00;100137.67;1763937;80;20937;-74
2022/10/13 08:33:55;;;;;;;21.07;8.65;;;;;;;15.80;56.13;100130.52;1763293;80;20998;-74
2022/10/13 08:36:22;;;;;;;14.00;9.23;;;;;;;15.86;55.73;100133.80;1762087;80;21590;-73
2022/10/13 08:38:48;;;;;;;13.53;9.58;;;;;;;15.97;55.43;100130.64;1778193;80;21118;-74
2022/10/13 08:41:19;;;;;;;13.32;7.80;;;;;;;16.11;54.73;100132.13;1762323;80;20914;-74
2022/10/13 08:43:52;;;;;;;13.90;7.00;;;;;;;16.22;53.89;100131.10;1769782;80;20862;-73
2022/10/13 08:46:27;;;;;;;14.47;6.85;;;;;;;16.34;53.38;100124.22;1771043;80;21006;-73
2022/10/13 08:48:55;;;;;;;17.02;6.72;;;;;;;16.51;52.80;100128.80;1770911;80;20918;-72
2022/10/13 08:51:22;;;;;;;15.10;6.35;;;;;;;16.66;52.15;100124.21;1770514;80;21257;-73
2022/10/13 08:53:49;;;;;;;10.53;5.78;;;;;;;16.80;51.58;100123.81;1761731;80;21527;-71
2022/10/13 08:56:21;;;;;;;11.48;6.28;;;;;;;16.95;50.76;100122.70;1777040;80;20930;-72
2022/10/13 08:58:49;;;;;;;10.05;5.97;;;;;;;17.11;50.15;100119.71;1778284;80;21030;-73
2022/10/13 09:01:23;;;;;;;8.10;5.25;;;;;;;17.28;49.60;100117.02;1778554;80;20999;-75
2022/10/13 09:04:14;;;;;;;12.23;6.53;;;;;;;17.40;48.74;100117.81;1757953;80;21907;-73
2022/10/13 09:06:51;;;;;;;13.28;5.80;;;;;;;17.50;48.50;100115.07;1755718;80;20883;-72
2022/10/13 09:09:19;;;;;;;8.33;6.05;;;;;;;17.64;48.03;100118.69;1756021;80;20946;-72
2022/10/13 09:11:48;;;;;;;9.70;5.78;;;;;;;17.73;47.29;100118.31;1770394;80;20898;-71
2022/10/13 09:14:35;;;;;;;9.63;6.00;;;;;;;17.79;46.84;100118.86;1756054;80;20989;-72
2022/10/13 09:17:22;;;;;;;6.92;4.72;;;;;;;17.85;46.15;100125.30;1772159;80;21240;-75
2022/10/13 09:20:26;;;;;;;7.58;4.97;;;;;;;17.86;45.11;100118.87;1776582;80;21500;-71
2022/10/13 09:23:05;;;;;;;12.23;6.10;;;;;;;17.88;44.82;100116.83;1770835;80;21064;-73
2022/10/13 09:25:43;;;;;;;8.20;6.08;;;;;;;17.86;44.68;100122.40;1756273;80;20898;-72
2022/10/13 09:28:22;;;;;;;11.60;3.87;;;;;;;17.89;44.66;100115.78;1775336;80;21422;-70
2022/10/13 09:30:51;;;;;;;6.70;3.72;;;;;;;18.01;43.60;100117.38;1776125;80;21247;-72
2022/10/13 09:33:22;;;;;;;7.12;3.33;;;;;;;18.10;42.47;100119.67;1717565;80;21010;-73
2022/10/13 09:36:02;;;;;;;12.13;4.17;;;;;;;18.16;41.64;100118.87;1760448;80;20962;-74
2022/10/13 09:38:29;;;;;;;10.60;4.47;;;;;;;18.22;41.41;100118.58;1755962;81;20990;-73
2022/10/13 09:41:20;;;;;;;6.03;3.60;;;;;;;18.27;41.56;100117.45;1771530;80;20915;-74
2022/10/13 09:43:53;;;;;;;9.15;4.50;;;;;;;18.33;40.66;100118.79;1651598;81;21178;-71
2022/10/13 09:46:33;;;;;;;17.85;11.55;;;;;;;18.39;39.93;100117.14;1756469;80;20977;-71
2022/10/13 09:49:27;;;;;;;5.70;4.50;;;;;;;18.39;39.26;100121.19;1769703;80;21040;-73
2022/10/13 09:52:14;;;;;;;7.15;3.58;;;;;;;18.39;38.90;100114.45;1771414;80;20993;-71
2022/10/13 09:54:47;;;;;;;3.65;2.60;;;;;;;18.40;38.59;100110.23;1769952;80;20902;-74
2022/10/13 09:57:39;;;;;;;4.58;2.45;;;;;;;18.35;38.05;100107.28;1770424;80;21281;-74
2022/10/13 10:00:21;;;;;;;4.15;2.58;;;;;;;18.40;37.59;100104.00;1755668;80;21033;-73
2022/10/13 10:03:29;;;;;;;7.08;2.65;;;;;;;18.40;37.55;100113.43;1766047;80;20934;-73
2022/10/13 10:06:08;;;;;;;6.95;2.98;;;;;;;18.44;37.56;100107.93;1778167;80;20939;-74
2022/10/13 10:08:48;;;;;;;5.87;2.50;;;;;;;18.42;37.27;100105.97;1762074;80;20890;-74
2022/10/13 10:11:28;;;;;;;6.35;2.40;;;;;;;18.41;37.42;100097.05;1775414;80;21392;-74
2022/10/13 10:13:56;;;;;;;4.60;2.25;;;;;;;18.42;37.36;100097.88;1774620;80;20931;-73
2022/10/13 10:16:30;;;;;;;3.80;2.10;;;;;;;18.35;36.76;100099.20;1765811;80;21093;-72
2022/10/13 10:19:23;;;;;;;9.53;2.45;;;;;;;18.29;36.78;100096.02;1777482;80;21012;-71
2022/10/13 10:22:35;;;;;;;5.45;2.40;;;;;;;18.30;36.66;100092.80;1763506;80;20926;-71
2022/10/13 10:25:40;;;;;;;3.83;2.25;;;;;;;18.30;36.44;100090.91;1641318;86;21886;-73
2022/10/13 10:28:21;;;;;;;5.22;2.47;;;;;;;18.23;36.49;100094.64;1625268;86;21115;-73
2022/10/13 10:30:59;;;;;;;6.10;2.67;;;;;;;18.17;36.66;100093.59;1754125;80;20946;-72
2022/10/13 10:34:00;;;;;;;4.33;1.98;;;;;;;18.17;36.67;100093.59;1761994;80;20999;-73
2022/10/13 10:36:55;;;;;;;2.60;1.87;;;;;;;18.15;36.56;100087.59;1777184;80;20965;-73
2022/10/13 10:39:41;;;;;;;4.45;2.10;;;;;;;18.12;36.63;100086.64;1759475;80;21790;-73
2022/10/13 10:42:49;;;;;;;7.78;1.85;;;;;;;18.15;36.58;100084.89;1723819;80;21025;-71
2022/10/13 10:45:20;;;;;;;5.42;2.00;;;;;;;18.16;36.57;100083.87;1755733;80;21460;-73
2022/10/13 10:47:50;;;;;;;5.05;1.80;;;;;;;18.11;36.62;100081.47;1769045;80;21201;-74
2022/10/13 10:50:17;;;;;;;4.20;1.70;;;;;;;18.02;36.53;100074.09;1778197;80;20926;-73
2022/10/13 10:53:06;;;;;;;3.55;1.80;;;;;;;17.97;36.35;100074.39;1766681;80;21848;-73
2022/10/13 10:55:55;;;;;;;7.03;1.57;;;;;;;17.95;36.25;100072.42;1769670;80;20878;-72
2022/10/13 10:58:39;;;;;;;3.42;1.75;;;;;;;17.89;36.13;100069.52;1772175;80;21052;-73
2022/10/13 11:01:23;;;;;;;4.45;1.55;;;;;;;17.84;35.90;100064.42;1777123;80;20946;-71
2022/10/13 11:04:19;;;;;;;2.15;1.00;;;;;;;17.84;36.15;100065.26;1773852;80;20926;-73
2022/10/13 11:06:46;;;;;;;2.63;1.43;;;;;;;17.89;36.11;100058.75;1771966;80;21155;-76
2022/10/13 11:09:13;;;;;;;3.22;1.70;;;;;;;17.96;36.04;100061.98;1771547;80;20929;-74
2022/10/13 11:11:41;;;;;;;3.40;1.60;;;;;;;17.97;36.04;100054.20;1768536;80;20938;-72
2022/10/13 11:14:27;;;;;;;3.17;1.60;;;;;;;18.07;35.83;100058.16;1762441;80;20930;-74
2022/10/13 11:17:19;;;;;;;4.33;1.50;;;;;;;18.19;35.73;100048.45;1763619;80;20883;-72
2022/10/13 11:19:48;;;;;;;3.92;1.22;;;;;;;18.31;35.80;100040.07;1756277;81;21928;-72
2022/10/13 11:22:17;;;;;;;2.33;1.27;;;;;;;18.40;35.73;100038.84;1755777;80;20918;-73
2022/10/13 11:24:59;;;;;;;2.75;1.25;;;;;;;18.50;35.40;100042.48;1764474;80;20879;-74
2022/10/13 11:27:34;;;;;;;3.72;1.20;;;;;;;18.59;35.26;100038.53;1760249;80;20938;-72
2022/10/13 11:30:00;;;;;;;2.30;1.37;;;;;;;18.69;35.24;100034.09;1755944;81;20997;-71
2022/10/13 11:35:11;;;;;;;3.92;1.80;;;;;;;18.84;34.92;100034.68;1765679;80;20969;-75
2022/10/13 11:38:03;;;;;;;3.60;1.35;;;;;;;18.93;35.14;100029.36;1762514;80;21038;-70